sensor_id;sensor_type;location;lat;lon;timestamp;pressure;altitude;pressure_sealevel;temperature;humidity
6413;BME280;3239;48.714;9.472;2023-04-03T00:01:32;98968.28;;;3.74;100.00
6413;BME280;3239;48.714;9.472;2023-04-03T00:03:58;98972.22;;;3.73;100.00
6413;BME280;3239;48.714;9.472;2023-04-03T00:06:24;98968.16;;;3.69;100.00
6413;BME280;3239;48.714;9.472;2023-04-03T00:08:50;98966.22;;;3.60;100.00
6413;BME280;3239;48.714;9.472;2023-04-03T00:11:17;98972.69;;;3.63;100.00
6413;BME280;3239;48.714;9.472;2023-04-03T00:13:44;98972.75;;;3.54;100.00
6413;BME280;3239;48.714;9.472;2023-04-03T00:16:11;98970.19;;;3.50;100.00
6413;BME280;3239;48.714;9.472;2023-04-03T00:18:39;98979.34;;;3.53;100.00
6413;BME280;3239;48.714;9.472;2023-04-03T00:21:06;98976.81;;;3.49;100.00
6413;BME280;3239;48.714;9.472;2023-04-03T00:23:32;98971.22;;;3.53;100.00
6413;BME280;3239;48.714;9.472;2023-04-03T00:25:58;98976.22;;;3.45;100.00
6413;BME280;3239;48.714;9.472;2023-04-03T00:28:23;98971.72;;;3.42;100.00
6413;BME280;3239;48.714;9.472;2023-04-03T00:30:50;98966.03;;;3.40;100.00
6413;BME280;3239;48.714;9.472;2023-04-03T00:33:16;98970.69;;;3.40;100.00
6413;BME280;3239;48.714;9.472;2023-04-03T00:35:42;98971.91;;;3.39;100.00
6413;BME280;3239;48.714;9.472;2023-04-03T00:38:08;98975.94;;;3.34;100.00
6413;BME280;3239;48.714;9.472;2023-04-03T00:40:39;98974.75;;;3.35;100.00
6413;BME280;3239;48.714;9.472;2023-04-03T00:43:24;98971.47;;;3.31;100.00
6413;BME280;3239;48.714;9.472;2023-04-03T00:45:58;98973.13;;;3.29;100.00
6413;BME280;3239;48.714;9.472;2023-04-03T00:48:41;98969.81;;;3.25;100.00
6413;BME280;3239;48.714;9.472;2023-04-03T00:51:13;98970.75;;;3.22;100.00
6413;BME280;3239;48.714;9.472;2023-04-03T00:53:50;98968.59;;;3.26;100.00
6413;BME280;3239;48.714;9.472;2023-04-03T00:56:21;98968.16;;;3.27;100.00
6413;BME280;3239;48.714;9.472;2023-04-03T00:59:04;98979.75;;;3.28;100.00
6413;BME280;3239;48.714;9.472;2023-04-03T01:01:31;98968.16;;;3.27;100.00
6413;BME280;3239;48.714;9.472;2023-04-03T01:03:59;98976.88;;;3.22;100.00
6413;BME280;3239;48.714;9.472;2023-04-03T01:06:29;98973.13;;;3.29;100.00
6413;BME280;3239;48.714;9.472;2023-04-03T01:08:59;98977.31;;;3.30;100.00
6413;BME280;3239;48.714;9.472;2023-04-03T01:11:26;98975.72;;;3.14;100.00
6413;BME280;3239;48.714;9.472;2023-04-03T01:13:53;98981.25;;;3.20;100.00
6413;BME280;3239;48.714;9.472;2023-04-03T01:16:19;98981.25;;;3.29;100.00
6413;BME280;3239;48.714;9.472;2023-04-03T01:18:45;98975.06;;;3.28;100.00
6413;BME280;3239;48.714;9.472;2023-04-03T01:21:41;98971.91;;;3.30;100.00
6413;BME280;3239;48.714;9.472;2023-04-03T01:26:59;98971.47;;;3.31;100.00
6413;BME280;3239;48.714;9.472;2023-04-03T01:29:26;98974.19;;;3.22;100.00
6413;BME280;3239;48.714;9.472;2023-04-03T01:32:00;98976.56;;;3.29;100.00
6413;BME280;3239;48.714;9.472;2023-04-03T01:34:28;98974.47;;;3.33;100.00
6413;BME280;3239;48.714;9.472;2023-04-03T01:36:54;98966.94;;;3.28;100.00
6413;BME280;3239;48.714;9.472;2023-04-03T01:39:21;98960.03;;;3.27;100.00
6413;BME280;3239;48.714;9.472;2023-04-03T01:41:48;98965.91;;;3.26;100.00
6413;BME280;3239;48.714;9.472;2023-04-03T01:44:14;98962.28;;;3.29;100.00
6413;BME280;3239;48.714;9.472;2023-04-03T01:46:40;98966.81;;;3.23;100.00
6413;BME280;3239;48.714;9.472;2023-04-03T01:49:07;98955.22;;;3.31;100.00
6413;BME280;3239;48.714;9.472;2023-04-03T01:51:33;98959.41;;;3.41;100.00
6413;BME280;3239;48.714;9.472;2023-04-03T01:53:59;98954.75;;;3.33;100.00
6413;BME280;3239;48.714;9.472;2023-04-03T01:56:25;98957.03;;;3.25;100.00
6413;BME280;3239;48.714;9.472;2023-04-03T01:58:50;98961.97;;;3.27;100.00
6413;BME280;3239;48.714;9.472;2023-04-03T02:01:16;98965.91;;;3.26;100.00
6413;BME280;3239;48.714;9.472;2023-04-03T02:03:42;98963.63;;;3.24;100.00
6413;BME280;3239;48.714;9.472;2023-04-03T02:06:08;98971.03;;;3.15;100.00
6413;BME280;3239;48.714;9.472;2023-04-03T02:08:34;98971.81;;;3.15;100.00
6413;BME280;3239;48.714;9.472;2023-04-03T02:10:59;98972.41;;;3.19;100.00
6413;BME280;3239;48.714;9.472;2023-04-03T02:13:25;98975.56;;;3.18;100.00
6413;BME280;3239;48.714;9.472;2023-04-03T02:15:51;98978.13;;;3.12;100.00
6413;BME280;3239;48.714;9.472;2023-04-03T02:18:17;98970.13;;;3.18;100.00
6413;BME280;3239;48.714;9.472;2023-04-03T02:20:43;98974.81;;;3.08;100.00
6413;BME280;3239;48.714;9.472;2023-04-03T02:23:09;98976.00;;;3.07;100.00
6413;BME280;3239;48.714;9.472;2023-04-03T02:25:35;98973.16;;;3.11;100.00
6413;BME280;3239;48.714;9.472;2023-04-03T02:28:01;98970.75;;;3.13;100.00
6413;BME280;3239;48.714;9.472;2023-04-03T02:30:27;98970.88;;;3.27;100.00
6413;BME280;3239;48.714;9.472;2023-04-03T02:32:52;98970.44;;;3.20;100.00
6413;BME280;3239;48.714;9.472;2023-04-03T02:35:18;98977.03;;;3.28;100.00
6413;BME280;3239;48.714;9.472;2023-04-03T02:37:44;98981.53;;;3.31;100.00
6413;BME280;3239;48.714;9.472;2023-04-03T02:40:10;98972.97;;;3.32;100.00
6413;BME280;3239;48.714;9.472;2023-04-03T02:42:37;98974.44;;;3.42;100.00
6413;BME280;3239;48.714;9.472;2023-04-03T02:45:03;98974.72;;;3.44;100.00
6413;BME280;3239;48.714;9.472;2023-04-03T02:47:29;98975.16;;;3.43;100.00
6413;BME280;3239;48.714;9.472;2023-04-03T02:49:55;98976.53;;;3.38;100.00
6413;BME280;3239;48.714;9.472;2023-04-03T02:52:21;98977.00;;;3.37;100.00
6413;BME280;3239;48.714;9.472;2023-04-03T02:54:47;98978.38;;;3.32;100.00
6413;BME280;3239;48.714;9.472;2023-04-03T02:57:12;98971.91;;;3.30;100.00
6413;BME280;3239;48.714;9.472;2023-04-03T02:59:38;98974.91;;;3.32;100.00
6413;BME280;3239;48.714;9.472;2023-04-03T03:02:09;98976.72;;;3.35;100.00
6413;BME280;3239;48.714;9.472;2023-04-03T03:04:35;98968.72;;;3.40;100.00
6413;BME280;3239;48.714;9.472;2023-04-03T03:07:02;98970.84;;;3.36;100.00
6413;BME280;3239;48.714;9.472;2023-04-03T03:09:28;98969.91;;;3.39;100.00
6413;BME280;3239;48.714;9.472;2023-04-03T03:11:55;98970.97;;;3.42;100.00
6413;BME280;3239;48.714;9.472;2023-04-03T03:14:21;98971.97;;;3.62;100.00
6413;BME280;3239;48.714;9.472;2023-04-03T03:16:47;98969.00;;;3.51;100.00
6413;BME280;3239;48.714;9.472;2023-04-03T03:19:12;98964.97;;;3.38;100.00
6413;BME280;3239;48.714;9.472;2023-04-03T03:21:38;98961.63;;;3.43;100.00
6413;BME280;3239;48.714;9.472;2023-04-03T03:24:04;98978.34;;;3.41;100.00
6413;BME280;3239;48.714;9.472;2023-04-03T03:26:30;98974.88;;;3.41;100.00
6413;BME280;3239;48.714;9.472;2023-04-03T03:28:56;98968.25;;;3.42;100.00
6413;BME280;3239;48.714;9.472;2023-04-03T03:31:21;98973.66;;;3.42;100.00
6413;BME280;3239;48.714;9.472;2023-04-03T03:33:47;98967.53;;;3.41;100.00
6413;BME280;3239;48.714;9.472;2023-04-03T03:36:13;98970.34;;;3.47;100.00
6413;BME280;3239;48.714;9.472;2023-04-03T03:38:39;98963.28;;;3.49;100.00
6413;BME280;3239;48.714;9.472;2023-04-03T03:41:05;98955.75;;;3.53;100.00
6413;BME280;3239;48.714;9.472;2023-04-03T03:43:30;98961.44;;;3.55;100.00
6413;BME280;3239;48.714;9.472;2023-04-03T03:45:56;98958.44;;;3.53;100.00
6413;BME280;3239;48.714;9.472;2023-04-03T03:48:22;98950.03;;;3.51;100.00
6413;BME280;3239;48.714;9.472;2023-04-03T03:50:49;98949.88;;;3.55;100.00
6413;BME280;3239;48.714;9.472;2023-04-03T03:53:15;98945.34;;;3.52;100.00
6413;BME280;3239;48.714;9.472;2023-04-03T03:55:41;98958.47;;;3.44;100.00
6413;BME280;3239;48.714;9.472;2023-04-03T03:58:07;98951.81;;;3.54;100.00
6413;BME280;3239;48.714;9.472;2023-04-03T04:00:32;98952.25;;;3.53;100.00
6413;BME280;3239;48.714;9.472;2023-04-03T04:02:58;98953.63;;;3.57;100.00
6413;BME280;3239;48.714;9.472;2023-04-03T04:05:24;98948.06;;;3.52;100.00
6413;BME280;3239;48.714;9.472;2023-04-03T04:07:50;98964.31;;;3.52;100.00
6413;BME280;3239;48.714;9.472;2023-04-03T04:10:16;98951.84;;;3.45;100.00
6413;BME280;3239;48.714;9.472;2023-04-03T04:12:42;98954.69;;;3.51;100.00
6413;BME280;3239;48.714;9.472;2023-04-03T04:15:08;98961.78;;;3.48;100.00
6413;BME280;3239;48.714;9.472;2023-04-03T04:17:34;98946.13;;;3.52;100.00
6413;BME280;3239;48.714;9.472;2023-04-03T04:20:02;98944.47;;;3.46;100.00
6413;BME280;3239;48.714;9.472;2023-04-03T04:22:28;98947.31;;;3.51;100.00
6413;BME280;3239;48.714;9.472;2023-04-03T04:24:54;98941.75;;;3.46;100.00
6413;BME280;3239;48.714;9.472;2023-04-03T04:27:20;98944.31;;;3.49;100.00
6413;BME280;3239;48.714;9.472;2023-04-03T04:29:45;98940.28;;;3.45;100.00
6413;BME280;3239;48.714;9.472;2023-04-03T04:32:11;98945.97;;;3.47;100.00
6413;BME280;3239;48.714;9.472;2023-04-03T04:34:37;98938.00;;;3.43;100.00
6413;BME280;3239;48.714;9.472;2023-04-03T04:37:03;98934.53;;;3.43;100.00
6413;BME280;3239;48.714;9.472;2023-04-03T04:39:28;98948.41;;;3.45;100.00
6413;BME280;3239;48.714;9.472;2023-04-03T04:41:54;98937.84;;;3.47;100.00
6413;BME280;3239;48.714;9.472;2023-04-03T04:44:20;98939.97;;;3.43;100.00
6413;BME280;3239;48.714;9.472;2023-04-03T04:46:46;98940.28;;;3.45;100.00
6413;BME280;3239;48.714;9.472;2023-04-03T04:49:12;98943.84;;;3.51;100.00
6413;BME280;3239;48.714;9.472;2023-04-03T04:51:38;98951.38;;;3.47;100.00
6413;BME280;3239;48.714;9.472;2023-04-03T04:54:04;98945.53;;;3.48;100.00
6413;BME280;3239;48.714;9.472;2023-04-03T04:56:30;98954.25;;;3.52;100.00
6413;BME280;3239;48.714;9.472;2023-04-03T04:58:56;98948.09;;;3.43;100.00
6413;BME280;3239;48.714;9.472;2023-04-03T05:01:21;98946.13;;;3.43;100.00
6413;BME280;3239;48.714;9.472;2023-04-03T05:03:47;98942.34;;;3.50;100.00
6413;BME280;3239;48.714;9.472;2023-04-03T05:06:13;98947.63;;;3.44;100.00
6413;BME280;3239;48.714;9.472;2023-04-03T05:08:39;98950.31;;;3.53;100.00
6413;BME280;3239;48.714;9.472;2023-04-03T05:11:05;98953.47;;;3.52;100.00
6413;BME280;3239;48.714;9.472;2023-04-03T05:13:31;98948.09;;;3.43;100.00
6413;BME280;3239;48.714;9.472;2023-04-03T05:15:56;98949.47;;;3.38;100.00
6413;BME280;3239;48.714;9.472;2023-04-03T05:18:22;98955.03;;;3.44;100.00
6413;BME280;3239;48.714;9.472;2023-04-03T05:20:51;98958.34;;;3.39;100.00
6413;BME280;3239;48.714;9.472;2023-04-03T05:23:17;98959.88;;;3.31;100.00
6413;BME280;3239;48.714;9.472;2023-04-03T05:25:43;98963.16;;;3.35;100.00
6413;BME280;3239;48.714;9.472;2023-04-03T05:28:11;98956.13;;;3.28;100.00
6413;BME280;3239;48.714;9.472;2023-04-03T05:30:36;98968.47;;;3.20;100.00
6413;BME280;3239;48.714;9.472;2023-04-03T05:33:02;98972.09;;;3.17;100.00
6413;BME280;3239;48.714;9.472;2023-04-03T05:35:28;98972.09;;;3.17;100.00
6413;BME280;3239;48.714;9.472;2023-04-03T05:37:54;98967.59;;;3.14;100.00
6413;BME280;3239;48.714;9.472;2023-04-03T05:40:20;98968.66;;;3.17;100.00
6413;BME280;3239;48.714;9.472;2023-04-03T05:42:46;98974.19;;;3.22;100.00
6413;BME280;3239;48.714;9.472;2023-04-03T05:45:12;98973.44;;;3.22;100.00
6413;BME280;3239;48.714;9.472;2023-04-03T05:47:38;98981.56;;;3.22;100.00
6413;BME280;3239;48.714;9.472;2023-04-03T05:50:04;98978.09;;;3.21;100.00
6413;BME280;3239;48.714;9.472;2023-04-03T05:52:36;98981.38;;;3.34;100.00
6413;BME280;3239;48.714;9.472;2023-04-03T05:55:02;98973.25;;;3.34;100.00
6413;BME280;3239;48.714;9.472;2023-04-03T05:57:28;98977.16;;;3.33;100.00
6413;BME280;3239;48.714;9.472;2023-04-03T05:59:54;98979.56;;;3.40;100.00
6413;BME280;3239;48.714;9.472;2023-04-03T06:02:22;98976.66;;;3.53;100.00
6413;BME280;3239;48.714;9.472;2023-04-03T06:04:48;98981.28;;;3.61;100.00
6413;BME280;3239;48.714;9.472;2023-04-03T06:07:20;98973.16;;;3.61;100.00
6413;BME280;3239;48.714;9.472;2023-04-03T06:09:50;98977.19;;;3.75;100.00
6413;BME280;3239;48.714;9.472;2023-04-03T06:12:18;98980.41;;;3.55;100.00
6413;BME280;3239;48.714;9.472;2023-04-03T06:14:44;98985.47;;;3.71;100.00
6413;BME280;3239;48.714;9.472;2023-04-03T06:17:10;98988.03;;;3.75;100.00
6413;BME280;3239;48.714;9.472;2023-04-03T06:19:36;98989.19;;;3.83;100.00
6413;BME280;3239;48.714;9.472;2023-04-03T06:22:02;98987.66;;;3.91;100.00
6413;BME280;3239;48.714;9.472;2023-04-03T06:24:28;98992.59;;;3.92;100.00
6413;BME280;3239;48.714;9.472;2023-04-03T06:26:55;98991.28;;;3.88;100.00
6413;BME280;3239;48.714;9.472;2023-04-03T06:29:21;98995.19;;;3.87;100.00
6413;BME280;3239;48.714;9.472;2023-04-03T06:31:48;98991.19;;;3.73;100.00
6413;BME280;3239;48.714;9.472;2023-04-03T06:34:14;98992.94;;;3.85;100.00
6413;BME280;3239;48.714;9.472;2023-04-03T06:36:41;99006.28;;;3.98;100.00
6413;BME280;3239;48.714;9.472;2023-04-03T06:39:09;98998.25;;;4.03;100.00
6413;BME280;3239;48.714;9.472;2023-04-03T06:41:38;98997.03;;;3.81;100.00
6413;BME280;3239;48.714;9.472;2023-04-03T06:44:04;98997.47;;;3.88;100.00
6413;BME280;3239;48.714;9.472;2023-04-03T06:46:30;99005.53;;;3.97;100.00
6413;BME280;3239;48.714;9.472;2023-04-03T06:48:56;99004.41;;;3.80;100.00
6413;BME280;3239;48.714;9.472;2023-04-03T06:51:28;99007.63;;;3.70;100.00
6413;BME280;3239;48.714;9.472;2023-04-03T06:53:58;99008.13;;;3.92;100.00
6413;BME280;3239;48.714;9.472;2023-04-03T06:56:25;99004.75;;;3.73;100.00
6413;BME280;3239;48.714;9.472;2023-04-03T06:58:52;99020.38;;;4.11;100.00
6413;BME280;3239;48.714;9.472;2023-04-03T07:01:20;99009.06;;;4.12;100.00
6413;BME280;3239;48.714;9.472;2023-04-03T07:03:47;99013.84;;;3.85;100.00
6413;BME280;3239;48.714;9.472;2023-04-03T07:06:15;99014.50;;;4.12;100.00
6413;BME280;3239;48.714;9.472;2023-04-03T07:08:42;99009.91;;;4.27;100.00
6413;BME280;3239;48.714;9.472;2023-04-03T07:11:09;99011.84;;;4.50;100.00
6413;BME280;3239;48.714;9.472;2023-04-03T07:13:35;99008.81;;;4.57;100.00
6413;BME280;3239;48.714;9.472;2023-04-03T07:16:02;99008.88;;;4.86;100.00
6413;BME280;3239;48.714;9.472;2023-04-03T07:18:29;99004.88;;;4.96;100.00
6413;BME280;3239;48.714;9.472;2023-04-03T07:20:55;99012.63;;;5.03;100.00
6413;BME280;3239;48.714;9.472;2023-04-03T07:23:21;99004.84;;;4.82;100.00
6413;BME280;3239;48.714;9.472;2023-04-03T07:25:49;99011.16;;;5.02;100.00
6413;BME280;3239;48.714;9.472;2023-04-03T07:28:16;99011.06;;;5.11;100.00
6413;BME280;3239;48.714;9.472;2023-04-03T07:30:51;99010.81;;;5.24;100.00
6413;BME280;3239;48.714;9.472;2023-04-03T07:33:20;99009.50;;;5.48;100.00
6413;BME280;3239;48.714;9.472;2023-04-03T07:35:46;99001.63;;;5.65;100.00
6413;BME280;3239;48.714;9.472;2023-04-03T07:38:12;99008.09;;;5.82;100.00
6413;BME280;3239;48.714;9.472;2023-04-03T07:40:39;99011.66;;;5.73;100.00
6413;BME280;3239;48.714;9.472;2023-04-03T07:43:05;99015.97;;;5.65;100.00
6413;BME280;3239;48.714;9.472;2023-04-03T07:45:34;99014.94;;;5.63;100.00
6413;BME280;3239;48.714;9.472;2023-04-03T07:48:00;99017.88;;;6.08;100.00
6413;BME280;3239;48.714;9.472;2023-04-03T07:50:26;99012.13;;;6.21;100.00
6413;BME280;3239;48.714;9.472;2023-04-03T07:52:52;99017.16;;;6.62;100.00
6413;BME280;3239;48.714;9.472;2023-04-03T07:55:20;99014.50;;;6.13;100.00
6413;BME280;3239;48.714;9.472;2023-04-03T07:57:45;99013.97;;;6.29;100.00
6413;BME280;3239;48.714;9.472;2023-04-03T08:00:12;99019.72;;;6.31;100.00
6413;BME280;3239;48.714;9.472;2023-04-03T08:02:39;99013.22;;;6.49;100.00
6413;BME280;3239;48.714;9.472;2023-04-03T08:05:05;99019.56;;;6.40;100.00
6413;BME280;3239;48.714;9.472;2023-04-03T08:07:31;99024.97;;;6.55;100.00
6413;BME280;3239;48.714;9.472;2023-04-03T08:09:56;99022.09;;;7.29;100.00
6413;BME280;3239;48.714;9.472;2023-04-03T08:12:22;99012.31;;;8.05;100.00
6413;BME280;3239;48.714;9.472;2023-04-03T08:14:48;99008.78;;;7.99;100.00
6413;BME280;3239;48.714;9.472;2023-04-03T08:17:14;99001.50;;;7.85;100.00
6413;BME280;3239;48.714;9.472;2023-04-03T08:19:40;99005.69;;;7.24;100.00
6413;BME280;3239;48.714;9.472;2023-04-03T08:22:06;99006.00;;;7.31;100.00
6413;BME280;3239;48.714;9.472;2023-04-03T08:24:35;99005.75;;;7.60;100.00
6413;BME280;3239;48.714;9.472;2023-04-03T08:27:01;99009.69;;;7.28;100.00
6413;BME280;3239;48.714;9.472;2023-04-03T08:29:27;99011.88;;;7.50;100.00
6413;BME280;3239;48.714;9.472;2023-04-03T08:31:53;99012.78;;;8.03;100.00
6413;BME280;3239;48.714;9.472;2023-04-03T08:34:19;99012.31;;;8.05;100.00
6413;BME280;3239;48.714;9.472;2023-04-03T08:36:45;98996.38;;;8.93;100.00
6413;BME280;3239;48.714;9.472;2023-04-03T08:39:12;99003.47;;;8.63;100.00
6413;BME280;3239;48.714;9.472;2023-04-03T08:41:39;99000.78;;;7.90;100.00
6413;BME280;3239;48.714;9.472;2023-04-03T08:47:26;99018.50;;;9.00;100.00
6413;BME280;3239;48.714;9.472;2023-04-03T08:49:59;99005.66;;;8.17;100.00
6413;BME280;3239;48.714;9.472;2023-04-03T08:52:41;99011.78;;;8.37;100.00
6413;BME280;3239;48.714;9.472;2023-04-03T08:55:33;99020.38;;;8.72;100.00
6413;BME280;3239;48.714;9.472;2023-04-03T08:58:12;99023.78;;;8.14;100.00
6413;BME280;3239;48.714;9.472;2023-04-03T09:03:21;99029.72;;;8.55;100.00
6413;BME280;3239;48.714;9.472;2023-04-03T09:06:21;99022.88;;;7.61;100.00
6413;BME280;3239;48.714;9.472;2023-04-03T09:09:33;99023.38;;;7.59;100.00
6413;BME280;3239;48.714;9.472;2023-04-03T09:12:05;99024.28;;;7.82;100.00
6413;BME280;3239;48.714;9.472;2023-04-03T09:23:26;99021.34;;;6.63;100.00
6413;BME280;3239;48.714;9.472;2023-04-03T09:26:01;99035.81;;;7.15;100.00
6413;BME280;3239;48.714;9.472;2023-04-03T09:28:31;99023.38;;;6.88;100.00
6413;BME280;3239;48.714;9.472;2023-04-03T09:31:00;99024.72;;;6.98;100.00
6413;BME280;3239;48.714;9.472;2023-04-03T09:33:26;99017.31;;;6.99;100.00
6413;BME280;3239;48.714;9.472;2023-04-03T09:35:53;99018.00;;;7.19;100.00
6413;BME280;3239;48.714;9.472;2023-04-03T09:38:22;99019.47;;;7.40;100.00
6413;BME280;3239;48.714;9.472;2023-04-03T09:41:06;99009.16;;;7.50;100.00
6413;BME280;3239;48.714;9.472;2023-04-03T09:43:37;99008.84;;;7.73;100.00
6413;BME280;3239;48.714;9.472;2023-04-03T09:46:32;99008.94;;;7.84;100.00
6413;BME280;3239;48.714;9.472;2023-04-03T09:49:03;99012.66;;;7.30;100.00
6413;BME280;3239;48.714;9.472;2023-04-03T09:51:30;99021.38;;;7.09;100.00
6413;BME280;3239;48.714;9.472;2023-04-03T09:53:57;99016.56;;;6.98;100.00
6413;BME280;3239;48.714;9.472;2023-04-03T09:56:27;99016.72;;;6.89;100.00
6413;BME280;3239;48.714;9.472;2023-04-03T10:01:35;99020.91;;;7.10;100.00
6413;BME280;3239;48.714;9.472;2023-04-03T10:06:41;99014.78;;;7.72;100.00
6413;BME280;3239;48.714;9.472;2023-04-03T10:09:29;99007.41;;;8.14;100.00
6413;BME280;3239;48.714;9.472;2023-04-03T10:14:23;99006.09;;;7.17;94.64
6413;BME280;3239;48.714;9.472;2023-04-03T10:17:21;99019.78;;;7.22;92.75
6413;BME280;3239;48.714;9.472;2023-04-03T10:20:43;99012.06;;;7.15;93.30
6413;BME280;3239;48.714;9.472;2023-04-03T10:23:27;99009.03;;;6.68;100.00
6413;BME280;3239;48.714;9.472;2023-04-03T10:34:45;99009.97;;;6.25;100.00
6413;BME280;3239;48.714;9.472;2023-04-03T10:37:26;99010.06;;;6.16;100.00
6413;BME280;3239;48.714;9.472;2023-04-03T10:40:15;99015.91;;;6.09;100.00
6413;BME280;3239;48.714;9.472;2023-04-03T10:43:39;99008.88;;;6.37;100.00
6413;BME280;3239;48.714;9.472;2023-04-03T10:51:46;99003.00;;;7.29;100.00
6413;BME280;3239;48.714;9.472;2023-04-03T10:54:33;99010.66;;;7.82;100.00
6413;BME280;3239;48.714;9.472;2023-04-03T10:57:08;98996.22;;;7.76;100.00
6413;BME280;3239;48.714;9.472;2023-04-03T11:02:39;99003.91;;;7.21;99.12
6413;BME280;3239;48.714;9.472;2023-04-03T11:05:22;98998.47;;;7.21;96.10
6413;BME280;3239;48.714;9.472;2023-04-03T11:07:53;99005.84;;;7.15;97.32
6413;BME280;3239;48.714;9.472;2023-04-03T11:10:31;99001.78;;;6.85;95.56
6413;BME280;3239;48.714;9.472;2023-04-03T11:13:22;99001.69;;;6.34;98.34
6413;BME280;3239;48.714;9.472;2023-04-03T11:15:53;98987.25;;;6.68;98.88
6413;BME280;3239;48.714;9.472;2023-04-03T11:18:45;98992.91;;;6.64;98.20
6413;BME280;3239;48.714;9.472;2023-04-03T11:21:37;98991.78;;;6.76;100.00
6413;BME280;3239;48.714;9.472;2023-04-03T11:24:17;98991.75;;;6.51;100.00
6413;BME280;3239;48.714;9.472;2023-04-03T11:26:46;98997.25;;;6.56;100.00
6413;BME280;3239;48.714;9.472;2023-04-03T11:29:19;98990.38;;;6.41;100.00
6413;BME280;3239;48.714;9.472;2023-04-03T11:32:28;98985.88;;;6.58;100.00
6413;BME280;3239;48.714;9.472;2023-04-03T11:35:00;98992.16;;;6.44;100.00
6413;BME280;3239;48.714;9.472;2023-04-03T11:37:44;99002.19;;;6.38;100.00
6413;BME280;3239;48.714;9.472;2023-04-03T11:40:29;98981.94;;;6.59;100.00
6413;BME280;3239;48.714;9.472;2023-04-03T11:43:29;98988.56;;;6.52;100.00
6413;BME280;3239;48.714;9.472;2023-04-03T11:46:02;98990.22;;;6.70;100.00
6413;BME280;3239;48.714;9.472;2023-04-03T11:50:58;98980.44;;;7.03;95.53
6413;BME280;3239;48.714;9.472;2023-04-03T11:53:29;98968.50;;;7.52;93.54
6413;BME280;3239;48.714;9.472;2023-04-03T11:56:02;98962.44;;;7.37;92.17
6413;BME280;3239;48.714;9.472;2023-04-03T11:58:33;98964.00;;;7.49;86.95
6413;BME280;3239;48.714;9.472;2023-04-03T12:01:10;98954.78;;;7.41;87.84
6413;BME280;3239;48.714;9.472;2023-04-03T12:13:40;98957.25;;;7.13;82.11
6413;BME280;3239;48.714;9.472;2023-04-03T12:19:01;98956.69;;;7.04;78.52
6413;BME280;3239;48.714;9.472;2023-04-03T12:29:34;98942.13;;;7.38;69.84
6413;BME280;3239;48.714;9.472;2023-04-03T12:32:24;98947.06;;;7.34;73.23
6413;BME280;3239;48.714;9.472;2023-04-03T12:35:19;98948.25;;;7.58;71.96
6413;BME280;3239;48.714;9.472;2023-04-03T12:41:38;98936.16;;;8.54;68.46
6413;BME280;3239;48.714;9.472;2023-04-03T12:44:36;98935.53;;;8.98;61.96
6413;BME280;3239;48.714;9.472;2023-04-03T12:47:32;98924.91;;;8.41;58.51
6413;BME280;3239;48.714;9.472;2023-04-03T12:49:59;98927.69;;;8.47;61.05
6413;BME280;3239;48.714;9.472;2023-04-03T12:52:41;98927.16;;;8.37;63.60
6413;BME280;3239;48.714;9.472;2023-04-03T12:55:19;98941.47;;;7.48;62.62
6413;BME280;3239;48.714;9.472;2023-04-03T12:57:46;98939.22;;;7.47;65.89
6413;BME280;3239;48.714;9.472;2023-04-03T13:00:29;98923.78;;;7.75;64.08
6413;BME280;3239;48.714;9.472;2023-04-03T13:02:56;98928.25;;;7.41;64.67
6413;BME280;3239;48.714;9.472;2023-04-03T13:05:23;98923.38;;;7.87;67.81
6413;BME280;3239;48.714;9.472;2023-04-03T13:07:55;98925.38;;;7.87;64.10
6413;BME280;3239;48.714;9.472;2023-04-03T13:10:23;98927.88;;;7.90;65.19
6413;BME280;3239;48.714;9.472;2023-04-03T13:12:56;98936.00;;;7.79;66.30
6413;BME280;3239;48.714;9.472;2023-04-03T13:15:30;98923.84;;;7.80;67.46
6413;BME280;3239;48.714;9.472;2023-04-03T13:17:56;98933.97;;;7.74;69.34
6413;BME280;3239;48.714;9.472;2023-04-03T13:20:29;98934.47;;;7.73;70.30
6413;BME280;3239;48.714;9.472;2023-04-03T13:23:04;98923.25;;;7.65;68.94
6413;BME280;3239;48.714;9.472;2023-04-03T13:25:35;98929.84;;;7.53;70.29
6413;BME280;3239;48.714;9.472;2023-04-03T13:28:05;98934.59;;;7.27;70.67
6413;BME280;3239;48.714;9.472;2023-04-03T13:30:35;98928.09;;;7.50;76.84
6413;BME280;3239;48.714;9.472;2023-04-03T13:33:19;98927.81;;;7.79;73.71
6413;BME280;3239;48.714;9.472;2023-04-03T13:35:46;98930.38;;;7.99;69.81
6413;BME280;3239;48.714;9.472;2023-04-03T13:40:57;98905.47;;;9.47;63.66
6413;BME280;3239;48.714;9.472;2023-04-03T13:43:31;98910.41;;;10.55;60.87
6413;BME280;3239;48.714;9.472;2023-04-03T13:48:52;98905.06;;;10.28;50.46
6413;BME280;3239;48.714;9.472;2023-04-03T13:51:29;98911.47;;;10.41;49.04
6413;BME280;3239;48.714;9.472;2023-04-03T13:54:00;98907.91;;;8.79;49.20
6413;BME280;3239;48.714;9.472;2023-04-03T13:56:34;98915.94;;;8.30;52.45
6413;BME280;3239;48.714;9.472;2023-04-03T13:59:22;98913.56;;;8.65;52.05
6413;BME280;3239;48.714;9.472;2023-04-03T14:01:57;98911.84;;;8.62;53.06
6413;BME280;3239;48.714;9.472;2023-04-03T14:04:55;98903.47;;;9.15;49.69
6413;BME280;3239;48.714;9.472;2023-04-03T14:07:24;98907.69;;;9.38;49.96
6413;BME280;3239;48.714;9.472;2023-04-03T14:09:51;98906.44;;;9.55;47.98
6413;BME280;3239;48.714;9.472;2023-04-03T14:14:50;98900.97;;;9.55;50.31
6413;BME280;3239;48.714;9.472;2023-04-03T14:17:23;98902.25;;;9.43;48.91
6413;BME280;3239;48.714;9.472;2023-04-03T14:19:52;98890.03;;;9.06;49.64
6413;BME280;3239;48.714;9.472;2023-04-03T14:22:31;98904.47;;;9.39;50.69
6413;BME280;3239;48.714;9.472;2023-04-03T14:24:58;98900.00;;;9.09;51.68
6413;BME280;3239;48.714;9.472;2023-04-03T14:27:28;98896.22;;;8.79;53.40
6413;BME280;3239;48.714;9.472;2023-04-03T14:29:57;98909.78;;;8.40;55.59
6413;BME280;3239;48.714;9.472;2023-04-03T14:32:25;98906.56;;;7.94;56.88
6413;BME280;3239;48.714;9.472;2023-04-03T14:34:52;98899.59;;;7.93;57.65
6413;BME280;3239;48.714;9.472;2023-04-03T14:37:22;98898.81;;;7.87;61.24
6413;BME280;3239;48.714;9.472;2023-04-03T14:39:51;98890.75;;;8.09;63.80
6413;BME280;3239;48.714;9.472;2023-04-03T14:42:32;98902.56;;;7.90;64.48
6413;BME280;3239;48.714;9.472;2023-04-03T14:45:00;98899.59;;;7.93;64.09
6413;BME280;3239;48.714;9.472;2023-04-03T14:47:29;98897.28;;;7.75;65.10
6413;BME280;3239;48.714;9.472;2023-04-03T14:49:55;98892.84;;;7.83;64.92
6413;BME280;3239;48.714;9.472;2023-04-03T14:52:31;98893.84;;;7.80;63.99
6413;BME280;3239;48.714;9.472;2023-04-03T14:54:58;98894.66;;;7.97;64.12
6413;BME280;3239;48.714;9.472;2023-04-03T14:57:26;98890.09;;;8.20;62.94
6413;BME280;3239;48.714;9.472;2023-04-03T14:59:53;98892.47;;;9.81;60.00